Izumi, Japan
Current Conditions -  °F | °C
As of 4:00 AM on Saturday 29 Nov 2014 (Local Time) from RJBB Reporting Station
Rain Showers Rain Showers  
Wind Chill: 64°   Ceiling: 3000
Heat Index: 64°   Visibility: 6mi
Dew Point: 61°   Wind: 13mph
Humidity: 88%   Direction: 160°SSE
Pressure: 29.97"   Gusts: NA
Location:  34.48°N, 135.42°E
Report Text: RJBB 281900Z 16011KT 110V190 9999 SHRA FEW010 SCT015 BKN030 18/16 Q1015 TEMPO 4000 SHRA BR
Loading
Personal Weather Stations






























Interactive Weather Map New forecast layout! Learn more

10-Day Weather Forecast

Advertisements
Track Severe Weather on mobile